createdAt,value
2019-05-09T00:01:48.791Z,3.43
2019-05-09T00:05:54.053Z,3.23
2019-05-09T00:09:53.385Z,6.60
2019-05-09T00:13:53.829Z,2.70
2019-05-09T00:17:53.271Z,3.50
2019-05-09T00:21:54.897Z,2.33
2019-05-09T00:26:04.204Z,4.50
2019-05-09T00:30:03.836Z,2.23
2019-05-09T00:34:06.874Z,3.87
2019-05-09T00:38:16.523Z,2.67
2019-05-09T00:42:24.207Z,5.03
2019-05-09T00:46:26.277Z,4.37
2019-05-09T00:50:24.735Z,2.50
2019-05-09T00:54:24.083Z,3.87
2019-05-09T00:58:24.145Z,4.50
2019-05-09T01:02:23.623Z,4.33
2019-05-09T01:06:23.942Z,4.37
2019-05-09T01:10:30.916Z,3.83
2019-05-09T01:14:33.900Z,3.07
2019-05-09T01:18:34.748Z,2.63
2019-05-09T01:22:33.611Z,4.80
2019-05-09T01:26:33.329Z,5.33
2019-05-09T01:30:34.117Z,4.60
2019-05-09T01:34:33.918Z,4.73
2019-05-09T01:38:34.834Z,4.50
2019-05-09T01:42:35.122Z,3.13
2019-05-09T01:46:34.101Z,5.47
2019-05-09T01:50:34.062Z,6.47
2019-05-09T01:54:35.089Z,7.57
2019-05-09T01:58:47.264Z,6.23
2019-05-09T02:02:47.677Z,2.87
2019-05-09T02:06:53.682Z,3.60
2019-05-09T02:10:54.751Z,5.57
2019-05-09T02:15:15.577Z,5.77
2019-05-09T02:19:24.061Z,5.50
2019-05-09T02:23:23.313Z,5.50
2019-05-09T02:27:23.857Z,4.27
2019-05-09T02:31:24.450Z,5.80
2019-05-09T02:35:28.494Z,3.73
2019-05-09T02:39:43.478Z,4.50
2019-05-09T02:43:42.486Z,3.77
2019-05-09T02:47:40.953Z,5.43
2019-05-09T02:51:48.786Z,4.30
2019-05-09T02:55:50.061Z,5.17
2019-05-09T02:59:53.551Z,7.10
2019-05-09T03:03:58.935Z,4.27
2019-05-09T03:12:35.154Z,3.57
2019-05-09T03:16:29.268Z,5.00
2019-05-09T03:20:54.072Z,8.30
2019-05-09T03:24:54.117Z,4.97
2019-05-09T03:29:01.314Z,5.00
2019-05-09T03:33:01.133Z,5.57
2019-05-09T03:37:08.642Z,7.40
2019-05-09T03:41:08.542Z,7.83
2019-05-09T03:45:13.135Z,2.20
2019-05-09T03:49:17.966Z,5.67
2019-05-09T03:53:24.157Z,11.07
2019-05-09T03:57:24.303Z,3.93
2019-05-09T04:01:28.020Z,4.83
2019-05-09T04:05:27.284Z,7.33
2019-05-09T04:09:31.796Z,10.27
2019-05-09T04:13:31.984Z,6.30
2019-05-09T04:17:47.552Z,8.07
2019-05-09T04:21:48.242Z,5.93
2019-05-09T04:26:04.575Z,4.90
2019-05-09T04:30:09.434Z,4.87
2019-05-09T04:34:09.778Z,4.13
2019-05-09T04:38:11.841Z,10.17
2019-05-09T04:42:10.746Z,4.53
2019-05-09T04:46:12.962Z,4.93
2019-05-09T04:50:15.329Z,7.47
2019-05-09T04:54:14.801Z,6.80
2019-05-09T04:58:13.762Z,5.27
2019-05-09T05:02:29.811Z,8.97
2019-05-09T05:06:28.307Z,8.00
2019-05-09T05:10:27.322Z,8.53
2019-05-09T05:14:28.128Z,9.60
2019-05-09T05:18:28.465Z,10.27
2019-05-09T05:22:31.993Z,11.00
2019-05-09T05:26:37.993Z,9.00
2019-05-09T05:30:37.260Z,7.70
2019-05-09T05:34:41.775Z,8.87
2019-05-09T05:38:42.047Z,7.27
2019-05-09T05:42:47.679Z,10.23
2019-05-09T05:46:52.161Z,7.63
2019-05-09T05:50:57.807Z,2.87
2019-05-09T05:55:09.778Z,7.33
2019-05-09T05:59:08.780Z,6.43
2019-05-09T06:03:08.761Z,5.50
2019-05-09T06:07:12.400Z,6.57
2019-05-09T06:11:13.331Z,5.53
2019-05-09T06:19:42.184Z,7.00
2019-05-09T06:23:54.383Z,3.40
2019-05-09T06:27:52.647Z,6.90
2019-05-09T06:31:53.964Z,2.73
2019-05-09T06:40:21.393Z,4.40
2019-05-09T06:44:28.949Z,7.50
2019-05-09T06:48:38.505Z,6.03
2019-05-09T06:52:41.834Z,5.87
2019-05-09T06:56:47.579Z,5.33
2019-05-09T07:00:48.928Z,4.27
2019-05-09T07:04:51.879Z,6.27
2019-05-09T07:08:55.112Z,6.57
2019-05-09T07:12:53.735Z,6.83
2019-05-09T07:16:58.290Z,5.77
2019-05-09T07:20:57.677Z,8.37
2019-05-09T07:25:13.326Z,5.50
2019-05-09T07:29:11.845Z,4.40
2019-05-09T07:33:34.841Z,3.97
2019-05-09T07:37:33.289Z,4.53
2019-05-09T07:41:38.412Z,3.93
2019-05-09T07:45:38.538Z,2.00
2019-05-09T07:49:40.840Z,3.70
2019-05-09T07:53:48.218Z,3.40
2019-05-09T07:57:54.630Z,2.63
2019-05-09T08:01:49.893Z,5.27
2019-05-09T08:05:52.854Z,8.17
2019-05-09T08:09:54.553Z,7.90
2019-05-09T08:13:57.619Z,3.80
2019-05-09T08:18:00.428Z,2.90
2019-05-09T08:21:58.998Z,5.47
2019-05-09T08:25:58.053Z,2.73
2019-05-09T08:29:58.302Z,1.80
2019-05-09T08:34:01.312Z,3.50
2019-05-09T08:38:04.878Z,4.17
2019-05-09T08:42:08.886Z,7.13
2019-05-09T08:46:08.334Z,4.10
2019-05-09T08:50:18.332Z,5.23
2019-05-09T08:54:34.212Z,3.93
2019-05-09T08:58:32.851Z,5.73
2019-05-09T09:02:31.321Z,5.13
2019-05-09T09:06:49.117Z,6.10
2019-05-09T09:10:48.787Z,3.53
2019-05-09T09:14:47.965Z,7.60
2019-05-09T09:18:48.004Z,2.87
2019-05-09T09:22:48.681Z,6.87
2019-05-09T09:26:48.106Z,4.60
2019-05-09T09:30:51.528Z,2.73
2019-05-09T09:34:53.233Z,2.67
2019-05-09T09:38:52.949Z,4.07
2019-05-09T09:42:53.905Z,4.77
2019-05-09T09:46:55.143Z,2.33
2019-05-09T09:50:53.635Z,3.60
2019-05-09T09:54:52.170Z,4.53
2019-05-09T09:59:11.660Z,8.50
2019-05-09T10:03:10.308Z,3.73
2019-05-09T10:07:12.244Z,3.63
2019-05-09T10:11:22.649Z,1.30
2019-05-09T10:15:38.400Z,4.00
2019-05-09T10:19:44.126Z,4.83
2019-05-09T10:24:02.530Z,3.37
2019-05-09T10:28:01.008Z,3.73
2019-05-09T10:32:01.801Z,2.63
2019-05-09T10:36:05.016Z,2.53
2019-05-09T10:40:11.452Z,1.37
2019-05-09T10:44:12.689Z,1.83
2019-05-09T10:48:13.901Z,3.13
2019-05-09T10:52:14.415Z,3.90
2019-05-09T10:56:12.338Z,2.07
2019-05-09T11:00:11.371Z,5.67
2019-05-09T11:04:13.790Z,2.70
2019-05-09T11:08:28.998Z,2.57
2019-05-09T11:12:27.669Z,2.63
2019-05-09T11:16:39.551Z,2.20
2019-05-09T11:20:29.381Z,1.53
2019-05-09T11:24:41.433Z,1.63
2019-05-09T11:28:34.233Z,2.60
2019-05-09T11:37:04.637Z,2.50
2019-05-09T11:41:10.474Z,1.57
2019-05-09T11:45:12.412Z,2.20
2019-05-09T11:49:10.871Z,1.93
2019-05-09T11:53:09.352Z,1.23
2019-05-09T11:57:14.207Z,2.60
2019-05-09T12:01:19.508Z,1.30
2019-05-09T12:05:19.279Z,0.77
2019-05-09T12:09:18.565Z,2.37
2019-05-09T12:13:18.576Z,1.00
2019-05-09T12:17:20.359Z,1.60
2019-05-09T12:21:19.591Z,1.30
2019-05-09T12:25:22.130Z,1.70
2019-05-09T12:29:23.088Z,1.23
2019-05-09T12:33:21.853Z,0.73
2019-05-09T12:37:24.875Z,2.43
2019-05-09T12:41:23.419Z,1.50
2019-05-09T12:45:22.526Z,0.70
2019-05-09T12:49:21.041Z,2.30
2019-05-09T12:53:23.110Z,0.73
2019-05-09T12:57:32.309Z,2.43
2019-05-09T13:01:39.862Z,3.27
2019-05-09T13:05:57.590Z,0.63
2019-05-09T13:10:03.143Z,0.50
2019-05-09T13:14:00.979Z,1.90
2019-05-09T13:18:03.882Z,2.50
2019-05-09T13:22:02.348Z,1.70
2019-05-09T13:26:04.585Z,0.53
2019-05-09T13:30:08.344Z,0.40
2019-05-09T13:34:08.906Z,1.50
2019-05-09T13:38:14.901Z,3.40
2019-05-09T13:42:11.047Z,0.40
2019-05-09T13:46:14.980Z,1.17
2019-05-09T13:50:12.520Z,0.60
2019-05-09T13:54:18.265Z,2.53
2019-05-09T13:58:28.544Z,1.13
2019-05-09T14:02:39.174Z,1.50
2019-05-09T14:06:38.940Z,2.60
2019-05-09T14:10:38.781Z,0.70
2019-05-09T14:14:38.051Z,0.80
2019-05-09T14:18:39.221Z,2.00
2019-05-09T14:22:43.423Z,1.90
2019-05-09T14:26:43.859Z,0.63
2019-05-09T14:30:47.782Z,1.33
2019-05-09T14:34:48.157Z,0.50
2019-05-09T14:38:50.687Z,0.80
2019-05-09T14:43:03.348Z,2.43
2019-05-09T14:47:02.248Z,0.80
2019-05-09T14:51:01.068Z,2.30
2019-05-09T14:54:59.642Z,2.43
2019-05-09T14:59:01.237Z,3.07
2019-05-09T15:03:05.333Z,0.90
2019-05-09T15:07:04.593Z,1.07
2019-05-09T15:11:15.026Z,2.90
2019-05-09T15:15:14.787Z,1.20
2019-05-09T15:19:19.528Z,3.50
2019-05-09T15:23:20.066Z,1.03
2019-05-09T15:27:21.065Z,2.43
2019-05-09T15:31:25.080Z,2.20
2019-05-09T15:35:28.006Z,2.27
2019-05-09T15:39:24.172Z,3.07
2019-05-09T15:43:40.522Z,1.40
2019-05-09T15:47:39.643Z,1.92
2019-05-09T15:51:38.636Z,1.82
2019-05-09T15:55:39.173Z,1.87
2019-05-09T15:59:39.047Z,1.40
2019-05-09T16:03:40.214Z,3.33
2019-05-09T16:07:51.860Z,4.85
2019-05-09T16:11:58.335Z,3.30
2019-05-09T16:15:59.963Z,4.33
2019-05-09T16:20:08.257Z,2.43
2019-05-09T16:24:10.862Z,1.83
2019-05-09T16:28:11.753Z,4.63
2019-05-09T16:32:10.466Z,3.27
2019-05-09T16:36:12.475Z,2.77
2019-05-09T16:40:17.989Z,4.20
2019-05-09T16:44:22.729Z,2.43
2019-05-09T16:48:20.766Z,2.73
2019-05-09T16:52:19.348Z,2.80
2019-05-09T16:56:46.603Z,2.00
2019-05-09T17:00:48.044Z,1.87
2019-05-09T17:04:48.418Z,2.33
2019-05-09T17:08:47.635Z,3.33
2019-05-09T17:12:49.480Z,2.30
2019-05-09T17:16:48.347Z,1.83
2019-05-09T17:20:58.757Z,5.83
2019-05-09T17:25:12.641Z,2.83
2019-05-09T17:29:11.111Z,5.23
2019-05-09T17:33:09.909Z,1.50
2019-05-09T17:37:08.491Z,1.50
2019-05-09T17:41:17.857Z,1.43
2019-05-09T17:45:16.529Z,3.20
2019-05-09T17:49:21.375Z,6.03
2019-05-09T17:53:23.559Z,1.53
2019-05-09T17:57:27.774Z,1.57
2019-05-09T18:01:27.742Z,9.23
2019-05-09T18:05:27.480Z,1.47
2019-05-09T18:09:28.322Z,1.63
2019-05-09T18:13:29.764Z,5.17
2019-05-09T18:17:29.745Z,1.60
2019-05-09T18:25:53.313Z,1.40
2019-05-09T18:29:53.675Z,2.60
2019-05-09T18:34:02.345Z,4.77
2019-05-09T18:38:01.232Z,2.60
2019-05-09T18:42:08.705Z,2.87
2019-05-09T18:46:09.201Z,5.33
2019-05-09T18:50:10.682Z,2.30
2019-05-09T18:54:09.831Z,1.67
2019-05-09T18:58:10.579Z,2.27
2019-05-09T19:02:17.570Z,3.80
2019-05-09T19:06:18.293Z,1.93
2019-05-09T19:10:21.325Z,5.43
2019-05-09T19:14:21.693Z,5.83
2019-05-09T19:18:36.730Z,1.57
2019-05-09T19:22:47.575Z,4.17
2019-05-09T19:26:46.082Z,1.50
2019-05-09T19:30:44.573Z,4.57
2019-05-09T19:34:48.210Z,4.43
2019-05-09T19:38:48.533Z,3.67
2019-05-09T19:42:53.449Z,3.17
2019-05-09T19:47:01.724Z,1.60
2019-05-09T19:50:59.678Z,2.43
2019-05-09T19:54:58.921Z,3.20
2019-05-09T19:58:57.544Z,1.77
2019-05-09T20:02:56.100Z,2.23
2019-05-09T20:06:54.641Z,7.00
2019-05-09T20:11:10.250Z,4.20
2019-05-09T20:15:10.517Z,4.87
2019-05-09T20:19:09.060Z,2.70
2019-05-09T20:23:07.529Z,4.03
2019-05-09T20:27:06.237Z,3.63
2019-05-09T20:31:10.534Z,6.07
2019-05-09T20:35:09.667Z,3.47
2019-05-09T20:39:17.487Z,6.23
2019-05-09T20:43:16.727Z,2.93
2019-05-09T20:47:15.432Z,2.30
2019-05-09T20:51:14.152Z,4.73
2019-05-09T20:55:13.847Z,2.17
2019-05-09T20:59:16.338Z,2.87
2019-05-09T21:03:15.045Z,3.10
2019-05-09T21:07:13.911Z,2.30
2019-05-09T21:11:12.708Z,5.63
2019-05-09T21:15:12.452Z,5.03
2019-05-09T21:19:11.199Z,7.40
2019-05-09T21:23:24.275Z,8.33
2019-05-09T21:27:22.766Z,8.83
2019-05-09T21:31:22.115Z,10.20
2019-05-09T21:35:20.637Z,9.90
2019-05-09T21:39:23.854Z,12.10
2019-05-09T21:43:22.357Z,13.00
2019-05-09T21:47:20.819Z,13.10
2019-05-09T21:51:21.917Z,10.80
2019-05-09T21:55:20.457Z,11.63
2019-05-09T21:59:26.834Z,15.50
2019-05-09T22:03:30.048Z,15.50
2019-05-09T22:07:28.782Z,16.50
2019-05-09T22:11:27.251Z,14.43
2019-05-09T22:15:27.729Z,14.10
2019-05-09T22:19:26.262Z,19.30
2019-05-09T22:23:24.728Z,11.80
2019-05-09T22:27:23.511Z,13.30
2019-05-09T22:31:22.067Z,14.27
2019-05-09T22:35:20.681Z,17.23
2019-05-09T22:39:21.978Z,17.17
2019-05-09T22:43:20.494Z,13.80
2019-05-09T22:47:19.535Z,15.90
2019-05-09T22:51:18.224Z,15.37
2019-05-09T22:55:21.534Z,16.23
2019-05-09T22:59:30.004Z,16.83
2019-05-09T23:03:33.550Z,15.83
2019-05-09T23:07:35.416Z,17.10
2019-05-09T23:11:35.639Z,17.20
2019-05-09T23:15:35.921Z,15.80
2019-05-09T23:19:40.052Z,18.07
2019-05-09T23:23:40.974Z,15.57
2019-05-09T23:27:44.402Z,15.23
2019-05-09T23:31:59.567Z,17.83
2019-05-09T23:36:04.704Z,21.30
2019-05-09T23:40:07.947Z,13.33
2019-05-09T23:44:08.217Z,16.53
2019-05-09T23:48:13.202Z,15.97
2019-05-09T23:52:11.656Z,13.93
2019-05-09T23:56:30.015Z,13.87
